Flight Track Log - Related Links

Times and Time Zones

All times are in EDT time to prevent confusion due to time zone crossing. See the N755SP flight status page for this flight to view local times or setup timezone preferences in your user account.

Time Position Orientation Groundspeed Altitude Reporting Facility
EDT Latitude Longitude Course Direction KTS MPH feet Rate Location/Type
Wed 11:47:32 AM 38.9333 -76.5500 90° East 62 71 700  Level Potomac TRACON
Wed 11:48:26 AM 38.9333 -76.5167 90° East 87 100 1,300 526 Climbing Potomac TRACON
Wed 11:49:26 AM 38.9000 -76.5167 180° South 113 130 1,700 158 Climbing Potomac TRACON
Wed 11:50:20 AM 38.8833 -76.5167 180° South 111 128 1,600 -53 Descending Potomac TRACON
Wed 11:51:20 AM 38.8500 -76.5333 201° Southwest 109 125 1,600 -50 Level Potomac TRACON
Wed 11:52:20 AM 38.8167 -76.5333 180° South 114 131 1,500 -50 Descending Potomac TRACON
Wed 11:53:21 AM 38.7833 -76.5500 201° Southwest 110 127 1,500 -347 Level Potomac TRACON
Wed 11:54:21 AM 38.7667 -76.5333 142° Southeast 119 137 800 -353 Descending Potomac TRACON
Wed 11:55:20 AM 38.7667 -76.5333 142° Southeast 92 106 800 368 Level Potomac TRACON
Wed 11:56:15 AM 38.7500 -76.5333 180° South 91 105 1,500 209 Climbing Potomac TRACON
Wed 11:57:15 AM 38.7500 -76.5333 180° South 69 79 1,200 -300 Descending Potomac TRACON
Wed 11:58:15 AM 38.7667 -76.5167 38° Northeast 111 128 900 -300 Descending Potomac TRACON
Wed 11:59:15 AM 38.7833 -76.5000 38° Northeast 94 108 600 -200 Descending Potomac TRACON
Wed 12:00:15 PM 38.7833 -76.5000 38° Northeast 119 137 500 -50 Descending Potomac TRACON
Wed 12:01:15 PM 38.7667 -76.5167 218° Southwest 105 121 500 286 Level Potomac TRACON
Wed 12:02:21 PM 38.7500 -76.5500 237° Southwest 87 100 1,100 500 Climbing Potomac TRACON
Wed 12:03:15 PM 38.7500 -76.5500 237° Southwest 120 138 1,500 263 Climbing Potomac TRACON
Wed 12:04:15 PM 38.7833 -76.5333 21° North 105 121 1,600  Climbing Potomac TRACON
Wed 12:05:15 PM 38.8000 -76.5167 38° Northeast 106 122 1,500 -50 Descending Potomac TRACON
Wed 12:06:15 PM 38.8333 -76.5333 339° North 96 110 1,500 50 Level Potomac TRACON
Wed 12:07:15 PM 38.8667 -76.5333 360° North 104 120 1,600  Climbing Potomac TRACON
Wed 12:08:15 PM 38.8833 -76.5500 322° Northwest 113 130 1,500 -50 Descending Potomac TRACON
Wed 12:09:15 PM 38.9000 -76.5833 303° West 113 130 1,500 -50 Level Potomac TRACON
Wed 12:10:15 PM 38.9167 -76.6167 303° West 111 128 1,400 -100 Descending Potomac TRACON
Wed 12:11:15 PM 38.9500 -76.6000 21° North 105 121 1,300 -100 Descending Potomac TRACON
Wed 12:12:15 PM 38.9833 -76.5833 21° North 100 115 1,200 104 Descending Potomac TRACON
Wed 12:13:10 PM 38.9833 -76.5667 90° East 104 120 1,500 -52 Climbing Potomac TRACON
Wed 12:14:10 PM 38.9667 -76.5500 142° Southeast 100 115 1,100 -400 Descending Potomac TRACON

Login

Don't have an account? Register now (free) for customized features, flight alerts, and more!